createdAt,value
2018-03-22T00:01:37.528Z,16.00
2018-03-22T00:04:07.589Z,16.00
2018-03-22T00:06:36.805Z,14.50
2018-03-22T00:09:06.024Z,15.37
2018-03-22T00:11:36.823Z,17.47
2018-03-22T00:14:06.224Z,15.27
2018-03-22T00:16:35.424Z,16.93
2018-03-22T00:19:04.660Z,16.10
2018-03-22T00:21:33.969Z,18.43
2018-03-22T00:24:03.217Z,17.70
2018-03-22T00:26:32.456Z,17.63
2018-03-22T00:29:01.715Z,17.57
2018-03-22T00:31:31.005Z,17.73
2018-03-22T00:34:00.286Z,17.37
2018-03-22T00:36:29.510Z,17.63
2018-03-22T00:38:58.727Z,17.40
2018-03-22T00:41:27.983Z,18.60
2018-03-22T00:43:58.098Z,19.27
2018-03-22T00:46:28.127Z,18.50
2018-03-22T00:48:57.328Z,19.87
2018-03-22T00:51:26.547Z,16.30
2018-03-22T00:53:55.878Z,16.87
2018-03-22T00:56:25.103Z,17.30
2018-03-22T00:58:54.334Z,18.60
2018-03-22T01:01:23.586Z,19.07
2018-03-22T01:03:53.682Z,17.87
2018-03-22T01:06:22.939Z,18.20
2018-03-22T01:08:52.163Z,17.50
2018-03-22T01:11:21.400Z,16.87
2018-03-22T01:13:50.579Z,18.23
2018-03-22T01:16:20.328Z,18.20
2018-03-22T01:18:49.551Z,18.27
2018-03-22T01:21:18.858Z,21.20
2018-03-22T01:23:48.977Z,18.43
2018-03-22T01:26:18.211Z,18.27
2018-03-22T01:28:48.230Z,20.80
2018-03-22T01:31:17.443Z,19.40
2018-03-22T01:33:47.435Z,18.80
2018-03-22T01:36:16.639Z,18.50
2018-03-22T01:38:47.398Z,20.30
2018-03-22T01:41:16.591Z,20.03
2018-03-22T01:43:46.630Z,19.27
2018-03-22T01:46:15.928Z,18.43
2018-03-22T01:48:45.146Z,19.33
2018-03-22T01:51:14.468Z,20.37
2018-03-22T01:53:43.697Z,20.37
2018-03-22T01:56:13.032Z,19.10
2018-03-22T01:58:42.423Z,18.53
2018-03-22T02:01:11.623Z,20.00
2018-03-22T02:03:40.847Z,19.80
2018-03-22T02:06:10.048Z,19.53
2018-03-22T02:08:39.261Z,19.03
2018-03-22T02:11:08.467Z,18.90
2018-03-22T02:13:37.698Z,18.03
2018-03-22T02:16:06.919Z,19.10
2018-03-22T02:18:36.121Z,18.87
2018-03-22T02:21:05.375Z,18.37
2018-03-22T02:23:35.356Z,19.47
2018-03-22T02:26:04.563Z,18.43
2018-03-22T02:28:33.819Z,19.70
2018-03-22T02:31:03.056Z,18.80
2018-03-22T02:33:32.320Z,18.47
2018-03-22T02:36:01.537Z,18.60
2018-03-22T02:38:30.748Z,18.80
2018-03-22T02:41:00.016Z,19.70
2018-03-22T02:43:29.215Z,18.90
2018-03-22T02:45:58.586Z,18.37
2018-03-22T02:48:27.809Z,17.67
2018-03-22T02:50:57.107Z,18.03
2018-03-22T02:53:26.308Z,17.90
2018-03-22T02:55:55.641Z,18.57
2018-03-22T02:58:25.663Z,17.50
2018-03-22T03:00:55.644Z,18.60
2018-03-22T03:03:24.855Z,17.80
2018-03-22T03:05:54.179Z,17.87
2018-03-22T03:08:23.541Z,16.80
2018-03-22T03:10:52.762Z,19.20
2018-03-22T03:13:22.004Z,18.50
2018-03-22T03:15:51.398Z,17.27
2018-03-22T03:18:21.368Z,18.93
2018-03-22T03:20:50.590Z,18.40
2018-03-22T03:23:19.810Z,18.77
2018-03-22T03:25:49.787Z,18.93
2018-03-22T03:28:19.019Z,19.23
2018-03-22T03:30:48.239Z,18.93
2018-03-22T03:33:17.455Z,19.70
2018-03-22T03:35:46.663Z,19.80
2018-03-22T03:38:16.060Z,21.23
2018-03-22T03:40:45.276Z,19.10
2018-03-22T03:43:14.472Z,20.20
2018-03-22T03:45:43.699Z,19.97
2018-03-22T03:48:13.004Z,19.30
2018-03-22T03:50:42.223Z,20.03
2018-03-22T03:53:11.446Z,18.93
2018-03-22T03:55:40.676Z,21.40
2018-03-22T03:58:09.894Z,21.63
2018-03-22T04:00:39.875Z,19.80
2018-03-22T04:03:09.143Z,20.97
2018-03-22T04:05:38.380Z,20.20
2018-03-22T04:08:07.605Z,19.80
2018-03-22T04:10:36.806Z,20.20
2018-03-22T04:13:06.011Z,19.63
2018-03-22T04:15:35.347Z,19.70
2018-03-22T04:18:04.541Z,20.20
2018-03-22T04:20:33.894Z,21.93
2018-03-22T04:23:03.123Z,19.07
2018-03-22T04:25:32.358Z,20.73
2018-03-22T04:28:01.594Z,19.77
2018-03-22T04:30:30.833Z,20.03
2018-03-22T04:33:00.062Z,20.83
2018-03-22T04:35:29.395Z,20.93
2018-03-22T04:37:59.403Z,19.63
2018-03-22T04:40:28.611Z,20.50
2018-03-22T04:42:57.825Z,21.63
2018-03-22T04:45:27.421Z,20.53
2018-03-22T04:47:56.629Z,20.53
2018-03-22T04:50:26.151Z,20.73
2018-03-22T04:52:55.351Z,21.63
2018-03-22T04:55:24.662Z,22.93
2018-03-22T04:57:54.051Z,20.97
2018-03-22T05:00:23.237Z,20.50
2018-03-22T05:02:52.462Z,21.03
2018-03-22T05:05:21.655Z,21.93
2018-03-22T05:07:50.873Z,21.93
2018-03-22T05:10:20.067Z,22.97
2018-03-22T05:12:49.378Z,20.33
2018-03-22T05:15:18.575Z,21.37
2018-03-22T05:17:47.813Z,21.10
2018-03-22T05:20:17.038Z,22.30
2018-03-22T05:22:47.924Z,22.47
2018-03-22T05:25:17.923Z,23.77
2018-03-22T05:27:47.323Z,22.50
2018-03-22T05:30:16.517Z,23.57
2018-03-22T05:32:45.755Z,23.90
2018-03-22T05:35:14.973Z,24.33
2018-03-22T05:37:44.296Z,25.47
2018-03-22T05:40:13.575Z,24.73
2018-03-22T05:42:42.779Z,25.87
2018-03-22T05:45:12.002Z,24.10
2018-03-22T05:47:41.270Z,25.10
2018-03-22T05:50:10.481Z,24.00
2018-03-22T05:52:39.686Z,25.60
2018-03-22T05:55:09.881Z,24.57
2018-03-22T05:57:39.090Z,24.80
2018-03-22T06:00:08.406Z,24.77
2018-03-22T06:02:37.630Z,27.50
2018-03-22T06:05:06.861Z,28.23
2018-03-22T06:07:36.055Z,26.27
2018-03-22T06:10:05.315Z,26.83
2018-03-22T06:12:34.543Z,27.13
2018-03-22T06:15:04.530Z,26.90
2018-03-22T06:17:33.759Z,25.97
2018-03-22T06:20:03.738Z,27.73
2018-03-22T06:22:33.070Z,26.47
2018-03-22T06:25:03.029Z,27.83
2018-03-22T06:27:32.242Z,27.30
2018-03-22T06:30:02.359Z,27.77
2018-03-22T06:32:31.579Z,28.90
2018-03-22T06:35:00.782Z,28.30
2018-03-22T06:37:30.014Z,29.90
2018-03-22T06:39:59.240Z,28.37
2018-03-22T06:42:28.475Z,29.70
2018-03-22T06:44:57.703Z,30.53
2018-03-22T06:47:26.950Z,29.10
2018-03-22T06:49:56.166Z,30.03
2018-03-22T06:52:25.550Z,28.43
2018-03-22T06:54:54.745Z,28.77
2018-03-22T06:57:24.010Z,25.73
2018-03-22T06:59:53.311Z,27.23
2018-03-22T07:02:23.278Z,27.10
2018-03-22T07:04:52.775Z,26.50
2018-03-22T07:07:21.978Z,26.70
2018-03-22T07:09:51.185Z,27.70
2018-03-22T07:12:21.146Z,26.90
2018-03-22T07:14:50.379Z,25.23
2018-03-22T07:17:19.614Z,25.23
2018-03-22T07:19:48.877Z,25.03
2018-03-22T07:22:18.036Z,25.33
2018-03-22T07:24:47.258Z,22.67
2018-03-22T07:27:16.643Z,22.60
2018-03-22T07:29:45.857Z,21.97
2018-03-22T07:32:15.547Z,23.43
2018-03-22T07:34:45.515Z,21.20
2018-03-22T07:37:15.492Z,21.67
2018-03-22T07:39:44.750Z,22.50
2018-03-22T07:42:13.966Z,20.53
2018-03-22T07:44:48.937Z,20.27
2018-03-22T07:47:18.326Z,21.50
2018-03-22T07:49:48.327Z,21.27
2018-03-22T07:52:18.302Z,20.60
2018-03-22T07:54:48.299Z,20.97
2018-03-22T07:57:17.533Z,19.73
2018-03-22T07:59:46.815Z,19.83
2018-03-22T08:02:16.222Z,18.27
2018-03-22T08:04:46.231Z,19.60
2018-03-22T08:07:16.196Z,18.73
2018-03-22T08:09:45.464Z,16.07
2018-03-22T08:12:14.691Z,16.30
2018-03-22T08:14:43.918Z,16.97
2018-03-22T08:17:13.150Z,17.47
2018-03-22T08:19:43.175Z,18.23
2018-03-22T08:22:12.407Z,15.90
2018-03-22T08:24:41.828Z,16.40
2018-03-22T08:27:11.052Z,14.73
2018-03-22T08:29:41.035Z,16.53
2018-03-22T08:32:10.999Z,15.90
2018-03-22T08:34:40.422Z,16.23
2018-03-22T08:37:10.279Z,14.53
2018-03-22T08:39:39.648Z,14.70
2018-03-22T08:42:08.832Z,15.97
2018-03-22T08:44:38.094Z,14.67
2018-03-22T08:47:08.076Z,14.77
2018-03-22T08:49:37.311Z,14.07
2018-03-22T08:52:06.745Z,13.47
2018-03-22T08:54:35.936Z,14.20
2018-03-22T08:57:05.402Z,13.17
2018-03-22T08:59:35.366Z,13.80
2018-03-22T09:02:04.593Z,13.73
2018-03-22T09:04:33.788Z,14.27
2018-03-22T09:07:03.012Z,13.60
2018-03-22T09:09:33.001Z,14.30
2018-03-22T09:12:02.451Z,13.37
2018-03-22T09:14:31.659Z,14.30
2018-03-22T09:17:00.843Z,14.13
2018-03-22T09:19:30.825Z,14.67
2018-03-22T09:22:00.050Z,14.50
2018-03-22T09:24:30.042Z,15.30
2018-03-22T09:27:04.627Z,14.20
2018-03-22T09:29:34.085Z,15.30
2018-03-22T09:32:04.081Z,15.30
2018-03-22T09:34:33.395Z,15.00
2018-03-22T09:37:03.390Z,14.00
2018-03-22T09:39:32.668Z,14.60
2018-03-22T09:42:02.767Z,15.70
2018-03-22T09:44:32.020Z,14.73
2018-03-22T09:47:01.225Z,17.30
2018-03-22T09:49:31.210Z,15.40
2018-03-22T09:52:00.590Z,14.93
2018-03-22T09:54:29.854Z,14.83
2018-03-22T09:56:59.861Z,15.77
2018-03-22T09:59:29.051Z,14.23
2018-03-22T10:01:58.253Z,15.30
2018-03-22T10:04:28.363Z,14.93
2018-03-22T10:06:58.355Z,14.53
2018-03-22T10:09:27.574Z,15.00
2018-03-22T10:11:56.775Z,15.10
2018-03-22T10:14:25.979Z,17.00
2018-03-22T10:16:56.008Z,15.23
2018-03-22T10:19:25.969Z,17.27
2018-03-22T10:21:55.178Z,15.83
2018-03-22T10:24:24.463Z,14.83
2018-03-22T10:26:53.688Z,15.00
2018-03-22T10:29:22.875Z,15.10
2018-03-22T10:31:52.142Z,15.60
2018-03-22T10:34:21.503Z,15.10
2018-03-22T10:36:50.726Z,13.43
2018-03-22T10:39:20.100Z,15.50
2018-03-22T10:41:50.103Z,14.43
2018-03-22T10:44:20.138Z,13.20
2018-03-22T10:46:50.352Z,14.43
2018-03-22T10:49:20.314Z,14.10
2018-03-22T10:51:49.560Z,15.87
2018-03-22T10:54:18.870Z,15.17
2018-03-22T10:56:48.829Z,15.67
2018-03-22T10:59:18.050Z,15.30
2018-03-22T11:01:52.948Z,15.13
2018-03-22T11:04:22.899Z,15.30
2018-03-22T11:06:52.115Z,15.03
2018-03-22T11:09:22.121Z,15.60
2018-03-22T11:11:52.207Z,16.80
2018-03-22T11:14:21.403Z,17.47
2018-03-22T11:16:50.684Z,17.30
2018-03-22T11:19:20.122Z,16.47
2018-03-22T11:21:49.361Z,18.37
2018-03-22T11:24:19.351Z,16.73
2018-03-22T11:26:48.586Z,17.60
2018-03-22T11:29:17.848Z,17.50
2018-03-22T11:31:47.062Z,17.27
2018-03-22T11:34:17.275Z,18.17
2018-03-22T11:36:46.499Z,20.20
2018-03-22T11:39:15.802Z,20.37
2018-03-22T11:41:45.034Z,21.07
2018-03-22T11:44:14.227Z,19.63
2018-03-22T11:46:43.463Z,21.33
2018-03-22T11:49:13.442Z,21.60
2018-03-22T11:51:42.837Z,22.60
2018-03-22T11:54:12.208Z,24.10
2018-03-22T11:56:41.436Z,22.30
2018-03-22T11:59:10.648Z,23.00
2018-03-22T12:01:39.875Z,25.00
2018-03-22T12:04:09.085Z,23.00
2018-03-22T12:06:39.082Z,23.60
2018-03-22T12:09:08.258Z,23.03
2018-03-22T12:11:37.482Z,22.40
2018-03-22T12:14:06.706Z,25.67
2018-03-22T12:16:35.934Z,24.43
2018-03-22T12:19:05.137Z,25.47
2018-03-22T12:21:34.353Z,25.97
2018-03-22T12:24:03.564Z,25.07
2018-03-22T12:26:32.895Z,26.27
2018-03-22T12:29:02.954Z,28.23
2018-03-22T12:31:32.187Z,28.43
2018-03-22T12:34:02.195Z,26.10
2018-03-22T12:36:31.394Z,25.10
2018-03-22T12:39:01.411Z,25.37
2018-03-22T12:41:30.619Z,25.27
2018-03-22T12:44:00.592Z,25.80
2018-03-22T12:46:29.787Z,27.63
2018-03-22T12:48:59.010Z,27.47
2018-03-22T12:51:28.203Z,28.77
2018-03-22T12:53:57.377Z,27.13
2018-03-22T12:56:26.570Z,27.40
2018-03-22T12:58:55.784Z,29.97
2018-03-22T13:01:24.975Z,46.90
2018-03-22T13:03:54.190Z,33.77
2018-03-22T13:06:24.055Z,27.93
2018-03-22T13:08:53.295Z,29.83
2018-03-22T13:11:22.613Z,28.50
2018-03-22T13:13:51.823Z,30.67
2018-03-22T13:16:21.103Z,28.57
2018-03-22T13:18:50.330Z,27.67
2018-03-22T13:21:20.367Z,31.10
2018-03-22T13:23:49.598Z,30.77
2018-03-22T13:26:18.922Z,31.07
2018-03-22T13:28:48.242Z,32.30
2018-03-22T13:31:18.239Z,31.27
2018-03-22T13:33:47.455Z,28.77
2018-03-22T13:36:16.746Z,31.60
2018-03-22T13:38:46.802Z,30.43
2018-03-22T13:41:16.032Z,30.53
2018-03-22T13:43:45.275Z,30.83
2018-03-22T13:46:14.542Z,31.37
2018-03-22T13:48:45.539Z,31.50
2018-03-22T13:51:14.739Z,33.47
2018-03-22T13:53:43.938Z,33.10
2018-03-22T13:56:13.163Z,30.70
2018-03-22T13:58:42.491Z,30.80
2018-03-22T14:01:12.546Z,32.63
2018-03-22T14:03:41.763Z,34.67
2018-03-22T14:06:11.023Z,29.53
2018-03-22T14:08:40.252Z,33.43
2018-03-22T14:11:09.480Z,32.10
2018-03-22T14:13:38.968Z,31.00
2018-03-22T14:16:08.190Z,31.80
2018-03-22T14:18:37.438Z,33.57
2018-03-22T14:21:06.637Z,37.73
2018-03-22T14:23:35.859Z,35.60
2018-03-22T14:26:05.160Z,32.93
2018-03-22T14:28:34.402Z,29.90
2018-03-22T14:31:03.622Z,31.13
2018-03-22T14:33:32.821Z,29.17
2018-03-22T14:36:02.067Z,27.70
2018-03-22T14:38:32.800Z,26.63
2018-03-22T14:41:02.019Z,24.77
2018-03-22T14:43:31.267Z,27.20
2018-03-22T14:46:00.624Z,28.60
2018-03-22T14:48:30.915Z,25.60
2018-03-22T14:51:00.115Z,27.87
2018-03-22T14:53:30.926Z,23.23
2018-03-22T14:56:00.137Z,26.67
2018-03-22T14:58:29.370Z,25.60
2018-03-22T15:00:59.351Z,27.60
2018-03-22T15:03:28.594Z,27.70
2018-03-22T15:05:57.818Z,27.37
2018-03-22T15:08:27.858Z,27.80
2018-03-22T15:10:57.114Z,29.03
2018-03-22T15:13:27.118Z,29.70
2018-03-22T15:15:57.996Z,28.40
2018-03-22T15:18:27.228Z,32.33
2018-03-22T15:20:57.952Z,28.43
2018-03-22T15:23:27.154Z,25.90
2018-03-22T15:25:56.387Z,25.47
2018-03-22T15:28:25.642Z,26.57
2018-03-22T15:30:55.066Z,26.80
2018-03-22T15:33:24.295Z,26.27
2018-03-22T15:35:53.475Z,35.70
2018-03-22T15:38:23.451Z,31.70
2018-03-22T15:40:54.461Z,28.27
2018-03-22T15:43:23.664Z,28.87
2018-03-22T15:45:52.874Z,25.60
2018-03-22T15:48:22.104Z,30.37
2018-03-22T15:50:52.851Z,26.97
2018-03-22T15:53:22.085Z,26.70
2018-03-22T15:55:51.303Z,28.03
2018-03-22T15:58:20.491Z,28.50
2018-03-22T16:00:49.715Z,26.27
2018-03-22T16:03:19.011Z,28.13
2018-03-22T16:05:48.247Z,26.70
2018-03-22T16:08:18.250Z,28.50
2018-03-22T16:10:48.246Z,27.13
2018-03-22T16:13:17.483Z,26.77
2018-03-22T16:15:47.442Z,25.70
2018-03-22T16:18:16.692Z,23.97
2018-03-22T16:20:46.780Z,25.10
2018-03-22T16:23:16.107Z,25.30
2018-03-22T16:25:46.140Z,23.00
2018-03-22T16:28:15.408Z,22.70
2018-03-22T16:30:44.834Z,20.40
2018-03-22T16:33:14.075Z,19.90
2018-03-22T16:35:43.304Z,20.23
2018-03-22T16:38:12.589Z,17.10
2018-03-22T16:40:43.576Z,17.23
2018-03-22T16:43:12.872Z,15.67
2018-03-22T16:45:42.182Z,13.83
2018-03-22T16:48:11.437Z,13.23
2018-03-22T16:50:41.465Z,16.10
2018-03-22T16:53:11.485Z,13.93
2018-03-22T16:55:40.768Z,16.80
2018-03-22T16:58:09.995Z,16.30
2018-03-22T17:00:39.264Z,19.40
2018-03-22T17:03:08.686Z,20.60
2018-03-22T17:05:37.949Z,25.20
2018-03-22T17:08:07.220Z,18.50
2018-03-22T17:10:36.514Z,18.20
2018-03-22T17:13:06.759Z,13.57
2018-03-22T17:15:36.047Z,16.97
2018-03-22T17:18:05.414Z,13.37
2018-03-22T17:20:35.062Z,15.20
2018-03-22T17:23:04.319Z,14.03
2018-03-22T17:25:34.331Z,24.20
2018-03-22T17:28:03.556Z,24.10
2018-03-22T17:30:32.787Z,18.53
2018-03-22T17:33:02.132Z,17.50
2018-03-22T17:35:31.369Z,26.57
2018-03-22T17:38:00.647Z,61.17
2018-03-22T17:40:29.873Z,18.97
2018-03-22T17:42:59.166Z,24.60
2018-03-22T17:45:28.421Z,27.83
2018-03-22T17:47:58.484Z,35.27
2018-03-22T17:50:27.692Z,25.33
2018-03-22T17:52:57.096Z,22.40
2018-03-22T17:55:26.350Z,20.50
2018-03-22T17:57:56.306Z,16.73
2018-03-22T18:00:25.485Z,19.13
2018-03-22T18:02:54.782Z,15.73
2018-03-22T18:05:24.114Z,19.00
2018-03-22T18:07:53.359Z,15.73
2018-03-22T18:10:22.572Z,12.90
2018-03-22T18:12:52.605Z,15.20
2018-03-22T18:15:21.866Z,14.43
2018-03-22T18:17:51.111Z,11.87
2018-03-22T18:20:20.375Z,13.13
2018-03-22T18:22:49.587Z,17.70
2018-03-22T18:25:18.820Z,17.37
2018-03-22T18:27:48.064Z,14.90
2018-03-22T18:30:17.339Z,15.47
2018-03-22T18:32:47.322Z,14.77
2018-03-22T18:35:16.584Z,19.17
2018-03-22T18:37:46.564Z,17.50
2018-03-22T18:40:16.590Z,15.53
2018-03-22T18:42:45.784Z,20.37
2018-03-22T18:45:16.733Z,27.70
2018-03-22T18:47:45.983Z,19.80
2018-03-22T18:50:15.733Z,19.30
2018-03-22T18:52:44.960Z,20.10
2018-03-22T18:55:14.228Z,20.37
2018-03-22T18:57:44.454Z,28.17
2018-03-22T19:00:14.487Z,28.07
2018-03-22T19:02:44.128Z,26.73
2018-03-22T19:05:14.583Z,31.27
2018-03-22T19:07:44.707Z,27.83
2018-03-22T19:10:14.683Z,20.97
2018-03-22T19:12:43.915Z,32.53
2018-03-22T19:15:13.421Z,46.40
2018-03-22T19:17:42.665Z,23.17
2018-03-22T19:20:11.831Z,22.00
2018-03-22T19:22:41.540Z,33.33
2018-03-22T19:25:11.539Z,26.63
2018-03-22T19:27:40.836Z,23.93
2018-03-22T19:30:10.740Z,24.57
2018-03-22T19:32:39.987Z,25.00
2018-03-22T19:35:09.289Z,22.90
2018-03-22T19:37:38.474Z,19.13
2018-03-22T19:40:07.822Z,17.07
2018-03-22T19:42:37.053Z,17.80
2018-03-22T19:45:07.060Z,18.53
2018-03-22T19:47:36.260Z,14.60
2018-03-22T19:50:05.489Z,16.10
2018-03-22T19:52:34.831Z,15.50
2018-03-22T19:55:04.065Z,14.30
2018-03-22T19:57:35.583Z,13.60
2018-03-22T20:00:05.011Z,14.27
2018-03-22T20:02:34.230Z,12.63
2018-03-22T20:05:03.657Z,12.27
2018-03-22T20:07:32.950Z,12.60
2018-03-22T20:10:03.048Z,11.77
2018-03-22T20:12:33.073Z,13.33
2018-03-22T20:15:02.438Z,13.07
2018-03-22T20:17:31.675Z,12.97
2018-03-22T20:20:01.683Z,16.07
2018-03-22T20:22:31.647Z,14.30
2018-03-22T20:25:00.908Z,14.67
2018-03-22T20:27:30.393Z,14.60
2018-03-22T20:29:59.814Z,13.33
2018-03-22T20:32:29.035Z,16.73
2018-03-22T20:34:58.370Z,15.93
2018-03-22T20:37:28.363Z,15.80
2018-03-22T20:39:57.582Z,18.20
2018-03-22T20:42:26.831Z,16.97
2018-03-22T20:44:56.022Z,16.20
2018-03-22T20:47:25.362Z,16.87
2018-03-22T20:49:54.634Z,15.10
2018-03-22T20:52:23.838Z,15.93
2018-03-22T20:54:53.051Z,15.97
2018-03-22T20:57:22.287Z,14.70
2018-03-22T20:59:51.477Z,15.97
2018-03-22T21:02:20.699Z,16.07
2018-03-22T21:04:49.926Z,15.60
2018-03-22T21:07:19.159Z,16.83
2018-03-22T21:09:48.365Z,14.60
2018-03-22T21:12:17.609Z,17.10
2018-03-22T21:14:46.859Z,18.23
2018-03-22T21:17:16.063Z,17.33
2018-03-22T21:19:45.313Z,19.60
2018-03-22T21:22:14.584Z,20.30
2018-03-22T21:24:44.624Z,19.33
2018-03-22T21:27:13.885Z,22.97
2018-03-22T21:29:43.108Z,21.83
2018-03-22T21:32:12.310Z,31.63
2018-03-22T21:34:41.551Z,28.40
2018-03-22T21:37:10.771Z,33.57
2018-03-22T21:39:39.981Z,35.37
2018-03-22T21:42:09.170Z,33.53
2018-03-22T21:44:39.242Z,35.43
2018-03-22T21:47:26.380Z,39.30
2018-03-22T21:49:55.615Z,44.03
2018-03-22T21:52:50.188Z,38.13
2018-03-22T21:55:19.431Z,40.70
2018-03-22T21:57:48.644Z,38.97
2018-03-22T22:00:17.941Z,43.40
2018-03-22T22:02:47.177Z,44.77
2018-03-22T22:05:17.406Z,44.93
2018-03-22T22:07:47.381Z,41.60
2018-03-22T22:10:16.591Z,46.40
2018-03-22T22:12:45.803Z,37.80
2018-03-22T22:15:15.096Z,41.73
2018-03-22T22:17:44.704Z,44.73
2018-03-22T22:20:13.960Z,43.10
2018-03-22T22:22:43.221Z,46.70
2018-03-22T22:25:13.391Z,42.63
2018-03-22T22:27:42.709Z,47.63
2018-03-22T22:30:11.951Z,47.53
2018-03-22T22:32:41.273Z,50.73
2018-03-22T22:35:10.471Z,48.23
2018-03-22T22:37:39.690Z,48.60
2018-03-22T22:40:08.927Z,41.37
2018-03-22T22:42:38.932Z,44.17
2018-03-22T22:45:08.140Z,45.50
2018-03-22T22:47:37.627Z,40.67
2018-03-22T22:50:06.852Z,38.17
2018-03-22T22:52:36.954Z,36.57
2018-03-22T22:55:06.215Z,37.17
2018-03-22T22:57:35.478Z,34.67
2018-03-22T23:00:05.452Z,35.70
2018-03-22T23:02:34.703Z,34.90
2018-03-22T23:05:03.903Z,35.60
2018-03-22T23:07:33.147Z,36.60
2018-03-22T23:10:02.364Z,33.10
2018-03-22T23:12:32.426Z,34.40
2018-03-22T23:15:01.827Z,32.50
2018-03-22T23:17:31.273Z,34.23
2018-03-22T23:20:00.532Z,32.70
2018-03-22T23:22:29.761Z,35.53
2018-03-22T23:24:59.019Z,35.90
2018-03-22T23:27:28.231Z,37.10
2018-03-22T23:29:57.461Z,36.00
2018-03-22T23:32:26.691Z,36.30
2018-03-22T23:34:56.692Z,35.00
2018-03-22T23:37:25.964Z,34.30
2018-03-22T23:39:55.471Z,35.07
2018-03-22T23:42:24.671Z,34.67
2018-03-22T23:44:53.897Z,34.40
2018-03-22T23:47:23.163Z,33.90
2018-03-22T23:49:52.408Z,30.90
2018-03-22T23:52:21.748Z,35.80
2018-03-22T23:54:50.972Z,34.07
2018-03-22T23:57:20.703Z,35.80
2018-03-22T23:59:50.727Z,34.47
